Time;durP1;ratioP1;P1;durP2;ratioP2;P2;SDS_P1;SDS_P2;PMS_P1;PMS_P2;Temp;Humidity;BMP_temperature;BMP_pressure;BME280_temperature;BME280_humidity;BME280_pressure;Samples;Min_cycle;Max_cycle;Signal;HPM_P1;HPM_P2
2024/01/26 00:00:43;;;;;;;14.90;7.73;;;17.20;56.50;;;;;;5052320;28;20474;-76
2024/01/26 00:03:13;;;;;;;22.20;8.27;;;17.20;56.30;;;;;;5051733;28;20961;-76
2024/01/26 00:05:42;;;;;;;27.10;10.13;;;17.20;56.50;;;;;;5040595;28;20462;-78
2024/01/26 00:08:12;;;;;;;22.63;9.50;;;17.20;56.50;;;;;;5051159;28;20442;-77
2024/01/26 00:10:40;;;;;;;26.70;9.93;;;17.10;56.50;;;;;;5055257;28;20521;-78
2024/01/26 00:13:10;;;;;;;24.53;9.60;;;17.20;56.60;;;;;;5048908;28;20471;-78
2024/01/26 00:15:40;;;;;;;26.10;8.90;;;17.10;56.50;;;;;;5050807;28;20431;-77
2024/01/26 00:18:07;;;;;;;22.23;9.30;;;17.20;56.60;;;;;;5052177;28;20465;-77
2024/01/26 00:20:35;;;;;;;24.03;10.00;;;17.20;56.50;;;;;;5053145;28;20493;-77
2024/01/26 00:23:05;;;;;;;24.03;8.97;;;17.10;56.60;;;;;;5035227;28;20477;-77
2024/01/26 00:25:33;;;;;;;21.50;9.30;;;17.20;56.60;;;;;;5052919;28;20554;-77
2024/01/26 00:28:04;;;;;;;26.97;9.20;;;17.10;56.50;;;;;;5053253;28;20474;-77
2024/01/26 00:30:32;;;;;;;22.70;9.20;;;17.20;56.50;;;;;;5053495;28;20518;-77
2024/01/26 00:33:00;;;;;;;27.20;9.50;;;17.20;56.50;;;;;;5052640;28;20485;-77
2024/01/26 00:35:28;;;;;;;21.07;8.30;;;17.20;56.50;;;;;;5050641;28;20451;-77
2024/01/26 00:37:56;;;;;;;23.27;8.87;;;17.10;56.60;;;;;;5044755;28;20455;-77
2024/01/26 00:40:25;;;;;;;21.67;8.50;;;17.10;56.60;;;;;;5053839;28;20463;-77
2024/01/26 00:42:53;;;;;;;20.70;8.60;;;17.20;56.80;;;;;;5065747;28;20443;-77
2024/01/26 00:45:21;;;;;;;26.87;8.87;;;17.20;56.70;;;;;;5053142;28;20454;-77
2024/01/26 00:47:49;;;;;;;18.20;8.87;;;17.20;56.70;;;;;;5051187;28;20461;-77
2024/01/26 00:50:17;;;;;;;21.17;8.60;;;17.20;56.70;;;;;;5070641;28;20535;-78
2024/01/26 00:52:46;;;;;;;21.30;8.80;;;17.20;56.80;;;;;;5067443;28;20458;-78
2024/01/26 00:55:14;;;;;;;23.40;8.60;;;17.20;56.80;;;;;;5063676;28;20458;-78
2024/01/26 00:57:43;;;;;;;23.53;8.87;;;17.20;56.60;;;;;;5052219;28;20529;-77
2024/01/26 01:00:12;;;;;;;20.30;8.40;;;17.20;56.80;;;;;;5047525;28;20480;-78
2024/01/26 01:02:40;;;;;;;25.70;8.83;;;17.20;56.70;;;;;;5052281;28;20439;-76
2024/01/26 01:05:09;;;;;;;24.43;8.67;;;17.20;56.80;;;;;;5045446;28;20435;-77
2024/01/26 01:07:37;;;;;;;27.23;9.03;;;17.20;56.80;;;;;;5049023;28;20510;-77
2024/01/26 01:10:06;;;;;;;19.47;8.17;;;17.20;56.60;;;;;;5035709;28;20545;-77
2024/01/26 01:12:39;;;;;;;23.17;9.40;;;17.10;56.90;;;;;;5068200;22;20560;-77
2024/01/26 01:15:11;;;;;;;21.20;8.80;;;17.20;56.70;;;;;;5070001;28;20445;-77
2024/01/26 01:17:40;;;;;;;24.40;8.50;;;17.20;56.80;;;;;;5064974;28;20450;-77
2024/01/26 01:20:10;;;;;;;24.03;9.00;;;17.10;57.00;;;;;;5069573;28;20452;-78
2024/01/26 01:22:40;;;;;;;24.40;9.43;;;17.10;56.80;;;;;;5069767;28;20549;-77
2024/01/26 01:25:11;;;;;;;22.20;9.40;;;17.10;56.90;;;;;;5072331;28;20461;-77
2024/01/26 01:27:39;;;;;;;19.00;8.47;;;17.20;57.00;;;;;;5070961;28;20495;-78
2024/01/26 01:30:09;;;;;;;19.87;8.80;;;17.10;56.80;;;;;;5070779;28;20442;-78
2024/01/26 01:32:37;;;;;;;15.73;8.47;;;17.10;56.90;;;;;;5070895;28;20480;-77
2024/01/26 01:35:12;;;;;;;17.40;8.67;;;17.20;57.00;;;;;;5071578;28;20454;-78
2024/01/26 01:37:40;;;;;;;17.23;9.03;;;17.10;56.80;;;;;;5066307;28;20494;-77
2024/01/26 01:40:09;;;;;;;20.90;8.70;;;17.20;56.80;;;;;;5069699;28;20454;-77
2024/01/26 01:42:37;;;;;;;20.17;8.70;;;17.20;57.10;;;;;;5067720;28;20489;-76
2024/01/26 01:45:11;;;;;;;19.93;8.50;;;17.20;56.80;;;;;;5070198;28;20495;-77
2024/01/26 01:47:39;;;;;;;21.53;9.40;;;17.10;57.00;;;;;;5070802;28;20441;-77
2024/01/26 01:50:08;;;;;;;20.07;8.60;;;17.20;57.10;;;;;;5072426;28;20445;-78
2024/01/26 01:52:38;;;;;;;17.90;8.23;;;17.10;57.10;;;;;;5075618;28;20469;-77
2024/01/26 01:55:09;;;;;;;15.13;8.30;;;17.20;57.10;;;;;;5077515;28;20445;-77
2024/01/26 01:57:38;;;;;;;15.50;8.13;;;17.20;56.90;;;;;;5074645;28;20496;-78
2024/01/26 02:00:15;;;;;;;19.33;9.17;;;17.20;57.00;;;;;;5075964;28;20532;-78
2024/01/26 02:02:46;;;;;;;21.30;9.10;;;17.20;57.20;;;;;;5074134;28;20725;-78
2024/01/26 02:05:14;;;;;;;14.50;8.10;;;17.20;57.10;;;;;;5068569;28;20449;-78
2024/01/26 02:07:43;;;;;;;20.07;8.63;;;17.20;57.10;;;;;;5075383;28;20520;-78
2024/01/26 02:10:11;;;;;;;18.53;7.83;;;17.20;57.20;;;;;;5074597;28;20445;-78
2024/01/26 02:12:43;;;;;;;13.90;7.83;;;17.20;57.10;;;;;;5071632;28;20516;-78
2024/01/26 02:15:17;;;;;;;17.70;7.70;;;17.30;57.10;;;;;;5073274;28;20526;-78
2024/01/26 02:17:47;;;;;;;17.73;7.83;;;17.20;57.20;;;;;;5067828;28;20446;-78
2024/01/26 02:20:15;;;;;;;19.50;8.53;;;17.20;57.30;;;;;;5069776;28;20445;-78
2024/01/26 02:22:43;;;;;;;15.53;7.83;;;17.20;57.20;;;;;;5074224;28;20504;-78
2024/01/26 02:25:12;;;;;;;16.67;7.87;;;17.20;57.20;;;;;;5074765;28;20441;-78
2024/01/26 02:27:41;;;;;;;15.47;7.50;;;17.20;57.20;;;;;;5074605;28;20488;-78
2024/01/26 02:30:09;;;;;;;17.00;8.03;;;17.30;57.30;;;;;;5071819;28;20457;-78
2024/01/26 02:32:38;;;;;;;14.17;7.70;;;17.30;57.40;;;;;;5074429;28;20550;-78
2024/01/26 02:35:07;;;;;;;14.33;8.20;;;17.20;57.30;;;;;;5073381;28;20835;-78
2024/01/26 02:37:35;;;;;;;15.30;8.33;;;17.30;57.40;;;;;;5074255;28;20518;-77
2024/01/26 02:40:04;;;;;;;18.17;9.13;;;17.30;57.40;;;;;;5074610;28;20532;-78
2024/01/26 02:42:34;;;;;;;17.00;8.90;;;17.30;57.30;;;;;;5073216;28;20561;-78
2024/01/26 02:45:02;;;;;;;17.03;9.23;;;17.30;57.40;;;;;;5073444;28;20544;-78
2024/01/26 02:47:30;;;;;;;17.30;9.53;;;17.30;57.30;;;;;;5074093;28;20503;-78
2024/01/26 02:49:58;;;;;;;17.87;10.23;;;17.30;57.40;;;;;;5072621;28;20446;-78
2024/01/26 02:52:27;;;;;;;20.67;10.03;;;17.30;57.20;;;;;;5072056;28;20464;-77
2024/01/26 02:54:54;;;;;;;21.53;10.97;;;17.30;57.40;;;;;;5071542;28;20468;-77
2024/01/26 02:57:22;;;;;;;17.57;10.20;;;17.30;57.50;;;;;;5072492;28;20449;-77
2024/01/26 02:59:52;;;;;;;21.33;10.80;;;17.30;57.50;;;;;;5071586;28;20541;-78
2024/01/26 03:02:20;;;;;;;16.40;10.13;;;17.30;57.80;;;;;;5065049;28;20465;-78
2024/01/26 03:04:48;;;;;;;19.73;10.80;;;17.30;57.50;;;;;;5072639;28;20446;-78
2024/01/26 03:07:16;;;;;;;18.90;10.97;;;17.30;57.40;;;;;;5073661;28;20469;-78
2024/01/26 03:09:44;;;;;;;18.30;11.00;;;17.30;57.60;;;;;;5072846;28;20469;-78
2024/01/26 03:12:13;;;;;;;21.10;11.57;;;17.30;57.50;;;;;;5073362;28;20465;-78
2024/01/26 03:14:41;;;;;;;22.90;11.87;;;17.30;57.60;;;;;;5072077;28;20556;-78
2024/01/26 03:17:11;;;;;;;19.27;11.53;;;17.30;57.60;;;;;;5071556;28;20533;-78
2024/01/26 03:19:39;;;;;;;21.53;11.40;;;17.40;57.60;;;;;;5074355;28;20532;-78
2024/01/26 03:22:07;;;;;;;20.67;11.60;;;17.40;57.70;;;;;;5074578;28;20468;-78
2024/01/26 03:24:35;;;;;;;17.77;9.50;;;17.40;57.60;;;;;;5071226;28;20518;-78
2024/01/26 03:27:04;;;;;;;18.30;11.43;;;17.40;57.80;;;;;;5072249;28;20517;-77
2024/01/26 03:29:32;;;;;;;26.30;10.83;;;17.30;57.70;;;;;;5073173;28;20434;-78
2024/01/26 03:32:00;;;;;;;19.13;11.23;;;17.40;57.70;;;;;;5073725;28;20472;-78
2024/01/26 03:34:30;;;;;;;19.27;11.80;;;17.40;57.80;;;;;;5071083;28;20473;-78
2024/01/26 03:36:58;;;;;;;21.57;12.60;;;17.40;57.80;;;;;;5074783;28;20443;-79
2024/01/26 03:39:25;;;;;;;19.70;11.73;;;17.40;57.70;;;;;;5076250;28;20465;-78
2024/01/26 03:41:53;;;;;;;21.13;12.30;;;17.40;57.80;;;;;;5071253;28;20588;-78
2024/01/26 03:44:22;;;;;;;20.00;12.33;;;17.40;57.80;;;;;;5074772;28;20438;-78
2024/01/26 03:46:50;;;;;;;17.90;11.23;;;17.40;57.80;;;;;;5073943;28;20438;-78
2024/01/26 03:49:17;;;;;;;18.83;10.93;;;17.40;57.70;;;;;;5070987;28;20448;-78
2024/01/26 03:51:47;;;;;;;22.30;12.87;;;17.40;57.80;;;;;;5073702;28;20466;-78
2024/01/26 03:54:15;;;;;;;18.37;11.27;;;17.40;57.90;;;;;;5072545;28;20462;-77
2024/01/26 03:56:44;;;;;;;17.50;11.00;;;17.40;57.90;;;;;;5072294;28;20446;-78
2024/01/26 03:59:12;;;;;;;17.47;11.60;;;17.40;57.80;;;;;;5072351;28;20446;-78
2024/01/26 04:01:40;;;;;;;15.87;10.60;;;17.40;58.00;;;;;;5074212;28;20518;-78
2024/01/26 04:04:08;;;;;;;19.63;11.30;;;17.40;57.80;;;;;;5075036;28;20446;-78
2024/01/26 04:06:40;;;;;;;18.17;11.40;;;17.40;57.90;;;;;;5072896;28;20453;-78
2024/01/26 04:09:10;;;;;;;19.27;11.63;;;17.40;57.90;;;;;;5074587;28;20449;-77
2024/01/26 04:11:38;;;;;;;19.00;11.47;;;17.50;58.00;;;;;;5073415;28;20430;-78
2024/01/26 04:14:06;;;;;;;18.57;10.93;;;17.50;58.00;;;;;;5071651;28;20475;-78
2024/01/26 04:16:34;;;;;;;19.23;11.47;;;17.40;58.00;;;;;;5074878;28;20545;-78
2024/01/26 04:19:04;;;;;;;18.80;11.30;;;17.50;58.10;;;;;;5072600;28;20446;-79
2024/01/26 04:21:32;;;;;;;16.50;10.77;;;17.40;58.00;;;;;;5067380;28;20457;-77
2024/01/26 04:24:00;;;;;;;17.13;11.03;;;17.50;58.10;;;;;;5073699;28;20896;-81
2024/01/26 04:26:30;;;;;;;19.43;11.60;;;17.50;58.10;;;;;;5072301;28;20445;-78
2024/01/26 04:28:58;;;;;;;21.20;10.60;;;17.50;58.10;;;;;;5072086;28;20458;-78
2024/01/26 04:31:27;;;;;;;15.40;10.70;;;17.50;58.10;;;;;;5071525;28;20484;-78
2024/01/26 04:33:55;;;;;;;19.50;12.17;;;17.50;58.10;;;;;;5072409;28;20512;-79
2024/01/26 04:36:23;;;;;;;15.70;10.73;;;17.50;58.20;;;;;;5073575;28;20450;-78
2024/01/26 04:38:52;;;;;;;19.60;11.43;;;17.50;58.10;;;;;;5067597;28;20441;-78
2024/01/26 04:41:21;;;;;;;16.60;10.77;;;17.50;58.20;;;;;;5071567;28;20446;-78
2024/01/26 04:43:51;;;;;;;14.63;10.47;;;17.50;58.30;;;;;;5072536;28;20546;-78
2024/01/26 04:46:19;;;;;;;17.20;11.37;;;17.50;58.30;;;;;;5074900;28;20996;-78
2024/01/26 04:48:47;;;;;;;18.83;11.30;;;17.50;58.30;;;;;;5071456;28;20531;-78
2024/01/26 04:51:16;;;;;;;16.43;10.60;;;17.50;58.20;;;;;;5066930;28;20488;-79
2024/01/26 04:53:44;;;;;;;18.73;10.60;;;17.50;58.20;;;;;;5072513;28;20465;-79
2024/01/26 04:56:12;;;;;;;14.23;9.83;;;17.60;58.30;;;;;;5069968;28;20434;-77
2024/01/26 04:58:41;;;;;;;15.33;10.63;;;17.50;58.30;;;;;;5071729;28;20502;-78
2024/01/26 05:01:10;;;;;;;17.53;10.80;;;17.60;58.20;;;;;;5070408;28;20449;-78
2024/01/26 05:03:39;;;;;;;20.10;11.57;;;17.60;58.30;;;;;;5072169;28;20472;-79
2024/01/26 05:06:07;;;;;;;14.07;9.73;;;17.60;58.40;;;;;;5071978;28;20445;-78
2024/01/26 05:08:35;;;;;;;16.67;11.03;;;17.60;58.30;;;;;;5072006;28;20529;-78
2024/01/26 05:11:04;;;;;;;16.20;11.73;;;17.50;58.40;;;;;;5071260;28;20485;-78
2024/01/26 05:13:33;;;;;;;18.93;11.50;;;17.60;58.50;;;;;;5063695;28;20499;-78
2024/01/26 05:16:01;;;;;;;15.23;10.27;;;17.60;58.40;;;;;;5071285;28;20509;-77
2024/01/26 05:18:31;;;;;;;17.50;10.73;;;17.60;58.50;;;;;;5069493;28;20513;-77
2024/01/26 05:20:59;;;;;;;15.13;10.47;;;17.60;58.50;;;;;;5070492;28;20446;-78
2024/01/26 05:23:27;;;;;;;17.37;11.20;;;17.60;58.50;;;;;;5070718;28;20480;-78
2024/01/26 05:25:56;;;;;;;13.97;9.70;;;17.60;58.50;;;;;;5070142;28;20453;-78
2024/01/26 05:28:24;;;;;;;15.87;10.50;;;17.60;58.50;;;;;;5070429;28;20519;-77
2024/01/26 05:30:52;;;;;;;15.10;9.37;;;17.60;58.40;;;;;;5071540;28;20465;-77
2024/01/26 05:33:20;;;;;;;16.13;10.20;;;17.60;58.50;;;;;;5070542;28;20462;-77
2024/01/26 05:35:50;;;;;;;14.60;10.53;;;17.60;58.70;;;;;;5064822;28;20528;-78
2024/01/26 05:38:18;;;;;;;16.17;9.53;;;17.60;58.50;;;;;;5068366;28;20460;-78
2024/01/26 05:40:46;;;;;;;13.97;10.10;;;17.70;58.60;;;;;;5071070;28;20450;-78
2024/01/26 05:43:15;;;;;;;14.30;10.70;;;17.60;58.60;;;;;;5073764;28;20469;-78
2024/01/26 05:45:43;;;;;;;12.87;9.80;;;17.70;58.60;;;;;;5071834;28;20541;-78
2024/01/26 05:48:11;;;;;;;13.17;9.93;;;17.70;58.60;;;;;;5071436;28;20430;-78
2024/01/26 05:50:39;;;;;;;12.90;9.40;;;17.70;58.60;;;;;;5070832;28;20528;-77
2024/01/26 05:53:08;;;;;;;15.17;10.00;;;17.70;58.60;;;;;;5069192;28;20470;-78
2024/01/26 05:55:36;;;;;;;13.30;9.67;;;17.70;58.60;;;;;;5067597;28;20568;-77
2024/01/26 05:58:04;;;;;;;13.43;9.50;;;17.70;58.60;;;;;;5078890;28;20438;-78
2024/01/26 06:00:32;;;;;;;15.23;10.37;;;17.70;58.70;;;;;;5078006;28;20438;-78
2024/01/26 06:03:01;;;;;;;13.27;9.90;;;17.70;58.90;;;;;;5072514;28;20458;-79
2024/01/26 06:05:29;;;;;;;14.13;9.50;;;17.70;58.80;;;;;;5066128;28;20541;-77
2024/01/26 06:07:57;;;;;;;13.77;9.30;;;17.70;58.80;;;;;;5070643;28;20442;-78
2024/01/26 06:10:26;;;;;;;13.93;9.10;;;17.70;58.70;;;;;;5070410;28;20511;-79
2024/01/26 06:12:54;;;;;;;11.67;9.10;;;17.80;58.70;;;;;;5064944;28;20495;-79
2024/01/26 06:15:22;;;;;;;11.80;8.87;;;17.80;58.90;;;;;;5069831;28;20505;-78
2024/01/26 06:17:50;;;;;;;13.73;9.20;;;17.80;58.70;;;;;;5073785;28;20505;-78
2024/01/26 06:20:18;;;;;;;11.97;9.40;;;17.80;58.90;;;;;;5071787;28;20448;-78
2024/01/26 06:22:46;;;;;;;13.00;9.63;;;17.80;58.90;;;;;;5091070;28;20434;-78
2024/01/26 06:25:13;;;;;;;10.97;8.67;;;17.80;58.90;;;;;;5094369;28;20410;-78
2024/01/26 06:27:43;;;;;;;14.07;9.77;;;17.80;58.90;;;;;;5094637;28;20455;-78
2024/01/26 06:30:11;;;;;;;13.13;9.33;;;17.80;58.90;;;;;;5092636;28;20449;-78
2024/01/26 06:32:42;;;;;;;11.70;9.00;;;17.80;58.90;;;;;;5091610;28;20473;-78
2024/01/26 06:35:10;;;;;;;13.30;9.97;;;17.80;58.90;;;;;;5075504;28;20469;-78
2024/01/26 06:37:38;;;;;;;13.50;8.70;;;17.80;58.90;;;;;;5072381;28;20465;-78
2024/01/26 06:40:10;;;;;;;11.07;9.40;;;17.80;59.00;;;;;;5073255;28;20520;-78
2024/01/26 06:42:38;;;;;;;11.57;8.70;;;17.80;59.00;;;;;;5072133;28;20496;-78
2024/01/26 06:45:09;;;;;;;12.17;9.07;;;17.90;59.10;;;;;;5070736;28;20532;-78
2024/01/26 06:47:37;;;;;;;14.10;9.33;;;17.80;58.90;;;;;;5073257;28;20445;-78
2024/01/26 06:50:06;;;;;;;11.50;8.43;;;17.80;59.00;;;;;;5071502;28;20463;-78
2024/01/26 06:52:39;;;;;;;8.93;7.40;;;17.90;59.10;;;;;;5072248;28;20501;-78
2024/01/26 06:55:08;;;;;;;10.50;8.27;;;17.90;59.10;;;;;;5068463;28;20452;-78
2024/01/26 06:57:36;;;;;;;9.80;7.90;;;17.90;59.10;;;;;;5069970;28;20541;-78
2024/01/26 07:00:05;;;;;;;11.50;8.20;;;17.90;59.10;;;;;;5073271;28;20514;-78
2024/01/26 07:02:36;;;;;;;11.40;8.13;;;17.90;59.30;;;;;;5073231;28;20544;-78
2024/01/26 07:05:06;;;;;;;9.10;8.20;;;17.90;59.20;;;;;;5073795;28;20446;-78
2024/01/26 07:07:34;;;;;;;8.00;7.20;;;17.90;59.30;;;;;;5072591;28;20570;-78
2024/01/26 07:10:01;;;;;;;8.47;7.40;;;17.90;59.20;;;;;;5073611;28;20434;-78
2024/01/26 07:12:30;;;;;;;9.50;7.60;;;17.90;59.20;;;;;;5083771;22;20517;-75
2024/01/26 07:14:58;;;;;;;12.90;8.50;;;18.00;59.40;;;;;;5027597;28;20472;-74
2024/01/26 07:17:26;;;;;;;8.97;8.00;;;18.00;59.40;;;;;;5029287;28;20473;-75
2024/01/26 07:19:55;;;;;;;11.27;7.10;;;18.00;59.20;;;;;;5036547;28;20798;-74
2024/01/26 07:22:24;;;;;;;10.13;7.40;;;18.00;59.30;;;;;;5022807;28;20475;-76
2024/01/26 07:24:53;;;;;;;9.20;7.40;;;18.00;59.50;;;;;;5018770;28;20439;-75
2024/01/26 07:27:21;;;;;;;9.70;7.50;;;18.00;59.50;;;;;;5036149;28;20470;-76
2024/01/26 07:29:49;;;;;;;8.20;7.03;;;18.00;59.60;;;;;;5033500;28;20443;-76
2024/01/26 07:32:18;;;;;;;8.50;7.30;;;18.10;59.60;;;;;;5034141;28;20846;-76
2024/01/26 07:34:46;;;;;;;7.17;6.40;;;18.10;59.70;;;;;;5016935;28;20542;-76
2024/01/26 07:37:16;;;;;;;7.57;6.80;;;18.10;59.60;;;;;;5035800;28;20523;-76
2024/01/26 07:39:44;;;;;;;9.50;6.90;;;18.00;59.60;;;;;;5031456;28;20499;-75
2024/01/26 07:42:12;;;;;;;7.80;6.53;;;18.00;59.70;;;;;;5030665;28;20511;-76
2024/01/26 07:44:40;;;;;;;8.53;7.10;;;18.10;59.70;;;;;;5033966;28;20448;-76
2024/01/26 07:47:08;;;;;;;8.13;6.37;;;18.10;59.70;;;;;;5053133;28;20464;-75
2024/01/26 07:49:37;;;;;;;7.43;6.30;;;18.10;59.80;;;;;;5050886;28;20878;-79
2024/01/26 07:52:06;;;;;;;8.40;5.83;;;18.10;59.80;;;;;;5054768;28;20578;-77
2024/01/26 07:54:36;;;;;;;6.90;6.13;;;18.10;59.90;;;;;;5040137;28;20449;-79
2024/01/26 07:57:05;;;;;;;6.90;5.20;;;18.10;59.90;;;;;;5040354;28;20498;-79
2024/01/26 07:59:33;;;;;;;6.10;5.30;;;18.10;60.00;;;;;;5038289;28;20478;-78
2024/01/26 08:02:01;;;;;;;7.20;5.60;;;18.10;60.20;;;;;;5026400;28;20472;-78
2024/01/26 08:04:30;;;;;;;6.27;5.50;;;18.10;60.30;;;;;;5022331;28;20443;-78
2024/01/26 08:06:59;;;;;;;5.87;5.27;;;18.10;60.20;;;;;;5032041;28;20539;-79
2024/01/26 08:09:28;;;;;;;5.77;5.27;;;18.10;60.20;;;;;;5034976;28;20439;-80
2024/01/26 08:11:59;;;;;;;6.63;5.30;;;18.10;60.20;;;;;;5035536;28;20447;-78
2024/01/26 08:14:28;;;;;;;6.90;4.60;;;18.10;60.30;;;;;;5031617;28;20498;-78
2024/01/26 08:16:56;;;;;;;6.40;5.13;;;18.10;60.40;;;;;;5037964;28;20506;-78
2024/01/26 08:19:25;;;;;;;5.23;4.73;;;18.20;60.30;;;;;;5035637;28;20497;-76
2024/01/26 08:21:57;;;;;;;5.90;5.30;;;18.10;60.30;;;;;;5030342;28;20502;-78
2024/01/26 08:24:25;;;;;;;4.80;4.40;;;18.10;60.60;;;;;;5030810;28;20446;-78
2024/01/26 08:26:55;;;;;;;6.10;4.97;;;18.10;60.60;;;;;;5018817;28;20441;-78
2024/01/26 08:29:29;;;;;;;5.03;4.50;;;18.20;60.60;;;;;;5034088;28;20451;-78
2024/01/26 08:31:58;;;;;;;6.67;4.27;;;18.10;60.50;;;;;;5032178;28;20444;-80
2024/01/26 08:34:27;;;;;;;4.60;4.10;;;18.20;60.60;;;;;;5032433;28;20452;-77
2024/01/26 08:36:59;;;;;;;6.20;4.50;;;18.10;60.80;;;;;;5033828;28;20507;-77
2024/01/26 08:39:27;;;;;;;4.53;4.13;;;18.20;60.70;;;;;;5037300;28;20453;-77
2024/01/26 08:41:57;;;;;;;4.70;4.10;;;18.20;60.80;;;;;;5040211;28;20497;-80
2024/01/26 08:44:27;;;;;;;3.83;3.53;;;18.20;60.70;;;;;;5032225;28;20451;-79
2024/01/26 08:46:55;;;;;;;4.30;3.90;;;18.20;60.70;;;;;;5028564;28;20459;-79
2024/01/26 08:49:23;;;;;;;4.00;3.70;;;18.20;60.80;;;;;;5031034;28;20527;-78
2024/01/26 08:51:51;;;;;;;9.70;3.60;;;18.20;60.90;;;;;;5034811;28;20467;-80
2024/01/26 08:54:19;;;;;;;3.60;3.40;;;18.20;60.70;;;;;;5044940;28;20538;-79
2024/01/26 08:56:48;;;;;;;4.30;3.60;;;18.20;60.70;;;;;;5034439;28;20476;-80
2024/01/26 08:59:16;;;;;;;3.60;3.30;;;18.20;60.80;;;;;;5032718;28;20510;-78
2024/01/26 09:01:45;;;;;;;4.00;3.10;;;18.20;60.80;;;;;;5036975;28;20448;-79
2024/01/26 09:04:14;;;;;;;3.20;3.00;;;18.30;60.90;;;;;;5032810;28;20450;-76
2024/01/26 09:06:45;;;;;;;4.17;3.77;;;18.30;61.10;;;;;;5031700;28;20555;-80
2024/01/26 09:09:23;;;;;;;3.00;2.80;;;18.30;61.10;;;;;;5038278;28;20477;-80
2024/01/26 09:31:37;;;;;;;3.37;2.70;;;18.30;61.50;;;;;;5029966;28;20495;-79
2024/01/26 09:49:02;;;;;;;2.40;2.30;;;18.30;61.70;;;;;;4998237;28;20447;-76
2024/01/26 09:51:30;;;;;;;2.83;2.17;;;18.30;61.70;;;;;;5043511;28;20478;-76
2024/01/26 09:54:00;;;;;;;2.20;2.00;;;18.30;61.60;;;;;;5049086;28;20474;-77
2024/01/26 09:56:29;;;;;;;2.30;2.20;;;18.30;61.70;;;;;;5049814;28;20532;-78
2024/01/26 09:59:00;;;;;;;2.20;2.10;;;18.40;61.70;;;;;;5046177;28;20501;-78
2024/01/26 10:01:28;;;;;;;2.80;2.20;;;18.40;61.50;;;;;;5045248;28;20512;-79
2024/01/26 10:03:56;;;;;;;3.07;2.13;;;18.40;61.70;;;;;;5038052;28;20483;-79
2024/01/26 10:06:27;;;;;;;2.40;2.20;;;18.40;61.70;;;;;;5052627;28;20450;-77
2024/01/26 10:08:55;;;;;;;2.67;2.00;;;18.40;61.40;;;;;;5040483;28;20422;-77
2024/01/26 10:11:24;;;;;;;2.00;1.90;;;18.40;61.50;;;;;;5049817;28;20504;-79
2024/01/26 10:13:53;;;;;;;2.10;2.00;;;18.40;61.70;;;;;;5056174;28;20494;-77
2024/01/26 10:16:21;;;;;;;1.90;1.80;;;18.40;61.60;;;;;;5055305;28;20442;-77
2024/01/26 10:18:49;;;;;;;1.80;1.70;;;18.50;61.60;;;;;;5052551;28;20442;-77
2024/01/26 10:21:18;;;;;;;1.83;1.73;;;18.50;61.60;;;;;;5046838;28;20549;-76
2024/01/26 10:23:50;;;;;;;1.83;1.73;;;18.40;61.50;;;;;;5042025;28;20463;-77
2024/01/26 10:26:19;;;;;;;1.83;1.73;;;18.50;61.70;;;;;;5053128;28;20450;-75
2024/01/26 10:28:49;;;;;;;2.03;1.80;;;18.50;61.50;;;;;;5046113;28;20477;-75
2024/01/26 10:31:20;;;;;;;2.03;1.80;;;18.60;61.40;;;;;;5050931;28;20530;-76
2024/01/26 10:33:54;;;;;;;1.63;1.53;;;18.50;61.40;;;;;;5056596;23;20495;-75
2024/01/26 10:36:38;;;;;;;2.03;1.83;;;18.50;61.40;;;;;;5032645;28;20451;-75
2024/01/26 10:39:10;;;;;;;1.60;1.50;;;18.50;61.40;;;;;;5024142;28;20812;-75
2024/01/26 10:41:39;;;;;;;1.63;1.63;;;18.50;61.40;;;;;;5033543;28;20968;-75
2024/01/26 10:44:09;;;;;;;1.57;1.47;;;18.60;61.40;;;;;;5026392;28;20447;-74
2024/01/26 10:46:40;;;;;;;1.87;1.70;;;18.50;61.70;;;;;;5033169;28;20462;-75
2024/01/26 10:49:08;;;;;;;1.63;1.53;;;18.60;62.10;;;;;;5032181;28;21030;-76
2024/01/26 10:51:37;;;;;;;3.17;2.00;;;18.70;62.00;;;;;;5025931;28;20431;-76
2024/01/26 10:54:06;;;;;;;1.80;1.70;;;18.70;61.60;;;;;;5030279;28;20464;-76
2024/01/26 10:56:36;;;;;;;1.80;1.70;;;18.70;62.00;;;;;;5031720;28;20443;-75
2024/01/26 10:59:05;;;;;;;1.43;1.37;;;18.80;62.00;;;;;;5034010;28;20443;-76
2024/01/26 11:01:34;;;;;;;1.73;1.53;;;19.00;61.90;;;;;;5035014;28;20487;-76
2024/01/26 11:04:02;;;;;;;3.40;1.40;;;19.10;61.50;;;;;;5032063;28;20485;-76
2024/01/26 11:06:30;;;;;;;1.43;1.43;;;19.10;61.00;;;;;;5030354;28;20454;-75
2024/01/26 11:08:59;;;;;;;2.07;1.40;;;19.00;61.10;;;;;;5031739;28;20474;-76
2024/01/26 11:11:38;;;;;;;1.87;1.77;;;19.00;61.20;;;;;;5031656;28;20454;-76
2024/01/26 11:14:06;;;;;;;2.00;1.87;;;18.90;61.20;;;;;;5032657;28;20498;-77
2024/01/26 11:16:34;;;;;;;1.87;1.77;;;19.00;61.10;;;;;;5043087;28;20527;-76
2024/01/26 11:19:02;;;;;;;4.07;1.90;;;18.90;61.20;;;;;;5053713;28;20513;-76
2024/01/26 11:21:37;;;;;;;1.57;1.47;;;18.90;61.20;;;;;;5050435;28;20428;-78
2024/01/26 11:24:16;;;;;;;1.70;1.60;;;18.90;61.60;;;;;;5035187;28;20489;-77
2024/01/26 11:26:56;;;;;;;1.80;1.70;;;18.80;61.50;;;;;;5033712;28;20470;-76
2024/01/26 11:29:30;;;;;;;1.70;1.60;;;18.80;61.80;;;;;;5034969;28;20451;-77
2024/01/26 11:31:58;;;;;;;2.00;1.90;;;18.70;61.70;;;;;;5032908;28;20517;-76
2024/01/26 11:34:27;;;;;;;2.80;2.07;;;18.80;61.90;;;;;;5033988;28;20471;-76
2024/01/26 11:37:10;;;;;;;1.90;1.80;;;18.70;61.60;;;;;;5033933;28;20469;-77
2024/01/26 11:39:39;;;;;;;1.90;1.67;;;18.70;61.90;;;;;;5033545;28;20538;-77
2024/01/26 11:42:10;;;;;;;2.53;2.33;;;18.70;62.10;;;;;;5033913;28;21044;-76
2024/01/26 11:44:40;;;;;;;2.07;1.90;;;18.70;61.70;;;;;;5031758;28;20444;-77
2024/01/26 11:47:09;;;;;;;2.23;2.03;;;18.70;62.10;;;;;;5033720;28;20754;-76
2024/01/26 11:49:37;;;;;;;2.00;1.90;;;18.70;61.80;;;;;;5032641;28;20443;-75
2024/01/26 11:52:05;;;;;;;3.23;2.03;;;18.70;62.00;;;;;;5033093;28;20486;-75
2024/01/26 11:54:33;;;;;;;2.70;2.50;;;18.80;61.90;;;;;;5032475;28;20452;-76
2024/01/26 11:57:02;;;;;;;4.17;2.40;;;18.80;61.80;;;;;;5034631;28;20446;-76
2024/01/26 11:59:31;;;;;;;2.43;2.20;;;18.80;61.70;;;;;;5026277;28;20467;-77
2024/01/26 12:01:59;;;;;;;3.47;2.00;;;18.80;62.00;;;;;;5031807;28;20490;-76
2024/01/26 12:04:27;;;;;;;4.70;2.17;;;18.90;61.90;;;;;;5033045;28;20432;-76
2024/01/26 12:06:55;;;;;;;3.13;2.70;;;18.90;61.70;;;;;;5031013;28;20539;-77
2024/01/26 12:09:23;;;;;;;7.07;2.90;;;19.00;61.90;;;;;;5033167;28;20800;-76
2024/01/26 12:11:51;;;;;;;2.67;2.47;;;19.10;61.60;;;;;;5032708;28;20447;-77
2024/01/26 12:14:19;;;;;;;4.80;2.70;;;19.20;61.80;;;;;;5032853;28;20440;-76
2024/01/26 12:16:49;;;;;;;2.60;2.40;;;19.30;61.40;;;;;;5032673;28;20551;-77
2024/01/26 12:19:17;;;;;;;3.63;2.87;;;19.40;61.20;;;;;;5025244;28;20471;-77
2024/01/26 12:21:47;;;;;;;4.83;2.60;;;19.50;61.20;;;;;;5032770;28;20451;-77
2024/01/26 12:24:16;;;;;;;3.30;2.43;;;19.50;60.70;;;;;;5029886;28;20415;-76
2024/01/26 12:26:45;;;;;;;2.70;2.37;;;19.50;60.40;;;;;;5027277;28;20458;-77
2024/01/26 12:29:13;;;;;;;5.40;3.20;;;19.40;61.00;;;;;;5032364;28;20440;-75
2024/01/26 12:31:41;;;;;;;4.70;2.67;;;19.30;60.70;;;;;;5026177;28;20453;-75
2024/01/26 12:34:13;;;;;;;5.10;2.73;;;19.30;60.90;;;;;;5030460;28;20966;-76
2024/01/26 12:36:42;;;;;;;2.60;2.27;;;19.20;60.70;;;;;;5030406;28;20455;-75
2024/01/26 12:39:10;;;;;;;6.27;2.70;;;19.20;61.10;;;;;;5030552;28;20479;-75
2024/01/26 12:41:39;;;;;;;4.20;2.57;;;19.10;61.30;;;;;;5030389;28;20471;-75
2024/01/26 12:44:07;;;;;;;4.10;2.70;;;19.10;61.40;;;;;;5030117;28;20486;-75
2024/01/26 12:46:35;;;;;;;4.20;2.70;;;19.00;61.40;;;;;;5030753;28;20474;-75
2024/01/26 12:49:03;;;;;;;2.97;2.40;;;19.00;61.60;;;;;;5028108;28;20456;-75
2024/01/26 12:51:32;;;;;;;5.90;2.40;;;19.00;61.40;;;;;;5029144;28;20443;-75
2024/01/26 12:54:00;;;;;;;2.97;2.67;;;18.90;61.50;;;;;;5030304;28;21060;-76
2024/01/26 12:56:33;;;;;;;10.80;3.80;;;18.80;61.80;;;;;;5030123;28;20466;-76
2024/01/26 12:59:01;;;;;;;4.27;2.50;;;18.80;61.80;;;;;;5027740;28;20542;-76
2024/01/26 13:01:29;;;;;;;5.53;2.67;;;18.80;62.00;;;;;;5030068;28;20447;-77
2024/01/26 13:03:57;;;;;;;5.03;2.77;;;18.80;61.90;;;;;;5032940;28;20462;-76
2024/01/26 13:06:26;;;;;;;6.87;2.63;;;18.80;61.90;;;;;;5030326;28;20443;-75
2024/01/26 13:08:56;;;;;;;5.30;2.93;;;18.80;62.00;;;;;;5029999;28;20450;-75
2024/01/26 13:11:24;;;;;;;4.07;2.60;;;18.80;61.90;;;;;;5030035;28;20444;-75
2024/01/26 13:13:52;;;;;;;4.97;2.37;;;18.70;61.90;;;;;;5032260;28;20522;-75
2024/01/26 13:16:22;;;;;;;5.97;2.87;;;18.70;62.10;;;;;;5023217;28;20448;-77
2024/01/26 13:18:50;;;;;;;4.13;2.20;;;18.80;62.00;;;;;;5031605;28;20566;-77
2024/01/26 13:21:18;;;;;;;8.53;2.80;;;18.80;61.70;;;;;;5030624;28;20470;-77